Time;durP1;ratioP1;P1;durP2;ratioP2;P2;SDS_P1;SDS_P2;PMS_P1;PMS_P2;Temp;Humidity;BMP_temperature;BMP_pressure;BME280_temperature;BME280_humidity;BME280_pressure;Samples;Min_cycle;Max_cycle;Signal;HPM_P1;HPM_P2
2023/01/14 00:00:38;;;;;;;34.50;4.10;;;;;;;6.29;97.10;101267.97;5040918;28;20033;-75
2023/01/14 00:03:05;;;;;;;36.63;5.47;;;;;;;6.33;96.66;101268.53;5043957;28;20036;-76
2023/01/14 00:05:30;;;;;;;35.40;4.18;;;;;;;6.20;97.46;101253.22;5028572;28;20045;-76
2023/01/14 00:07:56;;;;;;;38.42;5.60;;;;;;;6.27;97.25;101253.53;5049335;28;20041;-76
2023/01/14 00:10:21;;;;;;;34.47;3.97;;;;;;;6.20;97.53;101254.03;5046621;28;20044;-75
2023/01/14 00:12:47;;;;;;;32.53;4.03;;;;;;;6.21;97.30;101263.38;5048298;28;20029;-75
2023/01/14 00:15:12;;;;;;;24.30;3.47;;;;;;;6.23;97.13;101264.09;5029422;28;20033;-75
2023/01/14 00:17:38;;;;;;;45.72;3.78;;;;;;;6.25;97.20;101253.66;5033489;28;20502;-75
2023/01/14 00:20:04;;;;;;;33.80;4.55;;;;;;;6.18;97.19;101262.81;5050064;28;20056;-76
2023/01/14 00:22:30;;;;;;;40.83;4.97;;;;;;;6.18;97.64;101263.63;5046851;28;20043;-76
2023/01/14 00:24:55;;;;;;;32.97;3.95;;;;;;;6.16;97.52;101277.53;5046489;28;20557;-76
2023/01/14 00:27:21;;;;;;;29.60;4.82;;;;;;;6.14;97.37;101274.25;5034124;28;20029;-76
2023/01/14 00:29:46;;;;;;;46.67;4.63;;;;;;;6.15;97.54;101265.59;5042899;28;20037;-75
2023/01/14 00:32:12;;;;;;;42.47;4.28;;;;;;;6.16;97.92;101267.22;5045080;28;20521;-75
2023/01/14 00:34:37;;;;;;;47.00;4.47;;;;;;;6.11;98.02;101279.66;5030149;28;20032;-76
2023/01/14 00:37:03;;;;;;;37.67;4.82;;;;;;;6.06;97.97;101277.41;5051158;28;20106;-76
2023/01/14 00:39:28;;;;;;;43.05;5.00;;;;;;;6.02;98.39;101281.97;5031234;28;20033;-75
2023/01/14 00:41:54;;;;;;;37.67;5.40;;;;;;;5.90;98.54;101297.50;5029807;28;20937;-76
2023/01/14 00:44:19;;;;;;;25.25;3.15;;;;;;;6.02;98.42;101288.88;5032521;28;20479;-76
2023/01/14 00:46:46;;;;;;;34.08;4.60;;;;;;;5.90;98.84;101298.28;5044929;28;20148;-76
2023/01/14 00:49:18;;;;;;;35.67;4.30;;;;;;;5.83;99.61;101297.09;5045950;28;20491;-75
2023/01/14 00:51:45;;;;;;;50.42;4.80;;;;;;;5.80;99.98;101299.88;5044399;28;20379;-75
2023/01/14 00:54:11;;;;;;;31.85;3.75;;;;;;;5.77;99.55;101295.00;5043798;28;20063;-76
2023/01/14 00:56:38;;;;;;;41.03;4.90;;;;;;;5.70;99.72;101298.94;5041803;28;20082;-76
2023/01/14 00:59:03;;;;;;;39.13;6.15;;;;;;;5.73;100.00;101306.44;5050119;28;20024;-76
2023/01/14 01:01:29;;;;;;;37.60;5.35;;;;;;;5.72;100.00;101305.59;5046707;28;20049;-76
2023/01/14 01:03:56;;;;;;;36.13;4.82;;;;;;;5.74;99.99;101298.59;5048785;28;20033;-75
2023/01/14 01:06:24;;;;;;;38.10;4.57;;;;;;;5.72;100.00;101292.72;5044431;28;20040;-76
2023/01/14 01:08:56;;;;;;;29.15;3.42;;;;;;;5.80;99.80;101297.31;5042141;28;20028;-75
2023/01/14 01:11:22;;;;;;;21.38;4.15;;;;;;;5.70;100.00;101296.38;5044820;28;20037;-75
2023/01/14 01:13:47;;;;;;;37.47;4.78;;;;;;;5.84;99.93;101293.59;5028551;28;20056;-75
2023/01/14 01:16:15;;;;;;;42.65;5.30;;;;;;;5.88;99.12;101300.16;5041195;28;20075;-75
2023/01/14 01:18:42;;;;;;;31.30;3.92;;;;;;;5.85;99.42;101293.47;5028448;28;20044;-75
2023/01/14 01:21:14;;;;;;;42.42;5.13;;;;;;;5.79;99.41;101296.50;5043884;28;20570;-75
2023/01/14 01:23:40;;;;;;;25.90;3.50;;;;;;;5.77;99.37;101289.84;5026189;28;20029;-76
2023/01/14 01:26:09;;;;;;;32.67;3.90;;;;;;;5.71;100.00;101300.56;5044926;28;20036;-76
2023/01/14 01:28:35;;;;;;;31.88;4.28;;;;;;;5.72;99.93;101294.50;5042455;28;20033;-76
2023/01/14 01:31:06;;;;;;;32.25;3.72;;;;;;;5.71;100.00;101311.69;5007685;28;20080;-76
2023/01/14 01:33:33;;;;;;;;;;;;;;;5.68;100.00;101317.06;5029795;28;20579;-75
2023/01/14 01:36:18;;;;;;;29.80;3.50;;;;;;;5.68;100.00;101321.38;5029870;28;20007;-75
2023/01/14 01:38:45;;;;;;;38.28;4.60;;;;;;;5.65;100.00;101323.25;5012564;23;20042;-74
2023/01/14 01:41:25;;;;;;;34.60;4.22;;;;;;;5.73;100.00;101321.88;4987749;28;20067;-74
2023/01/14 01:44:02;;;;;;;40.47;4.07;;;;;;;5.74;100.00;101323.50;4984217;28;20045;-74
2023/01/14 01:46:29;;;;;;;33.00;4.35;;;;;;;5.71;100.00;101314.28;4980099;28;20112;-74
2023/01/14 01:49:05;;;;;;;48.10;5.75;;;;;;;5.66;100.00;101318.91;4989861;28;20074;-74
2023/01/14 01:51:37;;;;;;;31.67;3.58;;;;;;;5.66;100.00;101322.31;4983208;28;20619;-74
2023/01/14 01:54:03;;;;;;;30.13;3.92;;;;;;;5.60;100.00;101312.47;4983723;28;20034;-74
2023/01/14 01:56:34;;;;;;;32.30;4.22;;;;;;;5.60;100.00;101324.53;4965884;28;20158;-74
2023/01/14 01:59:04;;;;;;;32.53;5.35;;;;;;;5.59;100.00;101325.44;4980930;28;20115;-74
2023/01/14 02:01:31;;;;;;;23.65;4.97;;;;;;;5.52;100.00;101314.78;4955564;28;20046;-73
2023/01/14 02:03:57;;;;;;;46.35;4.88;;;;;;;5.43;100.00;101321.41;4967795;28;20035;-74
2023/01/14 02:06:23;;;;;;;30.92;3.40;;;;;;;5.34;100.00;101314.34;4982928;28;20046;-73
2023/01/14 02:08:53;;;;;;;31.70;3.63;;;;;;;5.41;100.00;101318.13;4953970;28;20031;-74
2023/01/14 02:11:49;;;;;;;25.77;3.38;;;;;;;5.38;100.00;101312.38;4949715;28;20169;-74
2023/01/14 02:14:18;;;;;;;41.25;7.07;;;;;;;5.45;100.00;101301.53;4976401;28;20050;-74
2023/01/14 02:17:17;;;;;;;37.90;3.80;;;;;;;5.35;100.00;101308.28;4986698;28;20039;-74
2023/01/14 02:20:09;;;;;;;33.10;4.20;;;;;;;5.40;100.00;101305.34;4982334;28;20034;-74
2023/01/14 02:22:59;;;;;;;44.90;4.72;;;;;;;5.34;100.00;101310.94;4981049;28;20043;-74
2023/01/14 02:25:33;;;;;;;32.53;4.43;;;;;;;5.24;100.00;101309.03;4966202;28;20043;-73
2023/01/14 02:28:18;;;;;;;37.20;5.47;;;;;;;5.37;100.00;101315.84;4965735;28;20378;-74
2023/01/14 02:30:54;;;;;;;39.13;3.65;;;;;;;5.34;100.00;101305.81;4951306;28;20031;-73
2023/01/14 02:33:38;;;;;;;29.60;5.85;;;;;;;5.30;100.00;101299.25;4969975;28;20082;-73
2023/01/14 02:36:30;;;;;;;38.60;5.38;;;;;;;5.31;100.00;101299.13;4982192;28;20066;-73
2023/01/14 02:39:23;;;;;;;33.03;4.35;;;;;;;5.30;100.00;101291.53;4965202;28;20031;-74
2023/01/14 02:44:52;;;;;;;34.38;4.68;;;;;;;5.29;100.00;101285.53;4981005;28;20408;-74
2023/01/14 02:47:23;;;;;;;27.05;3.97;;;;;;;5.37;100.00;101277.28;4966602;28;20082;-73
2023/01/14 02:49:52;;;;;;;49.00;4.15;;;;;;;5.50;100.00;101272.91;4951854;28;20039;-74
2023/01/14 02:52:19;;;;;;;37.63;4.32;;;;;;;5.43;100.00;101267.38;4967126;28;20046;-74
2023/01/14 02:54:57;;;;;;;31.35;4.65;;;;;;;5.41;100.00;101250.44;4964600;28;20069;-74
2023/01/14 02:57:49;;;;;;;39.30;4.05;;;;;;;5.29;100.00;101254.69;4968003;28;20526;-74
2023/01/14 03:00:48;;;;;;;24.38;3.20;;;;;;;5.20;100.00;101245.91;4982192;28;20043;-74
2023/01/14 03:03:38;;;;;;;34.85;6.22;;;;;;;5.26;100.00;101240.31;4951821;28;20561;-74
2023/01/14 03:06:26;;;;;;;40.08;3.78;;;;;;;5.23;100.00;101237.94;4948172;28;20038;-74
2023/01/14 03:09:04;;;;;;;31.42;6.15;;;;;;;5.37;100.00;101228.41;4970215;28;20038;-74
2023/01/14 03:11:58;;;;;;;27.52;3.97;;;;;;;5.23;100.00;101234.56;4962405;28;20097;-74
2023/01/14 03:14:32;;;;;;;32.97;4.28;;;;;;;5.20;100.00;101232.22;4950769;28;20559;-74
2023/01/14 03:17:07;;;;;;;28.45;3.13;;;;;;;5.19;100.00;101233.97;4951210;28;20370;-74
2023/01/14 03:19:40;;;;;;;29.38;4.38;;;;;;;5.22;100.00;101226.03;4959524;28;20035;-74
2023/01/14 03:22:08;;;;;;;32.28;3.88;;;;;;;5.19;100.00;101221.09;4966238;28;20023;-74
2023/01/14 03:24:44;;;;;;;24.27;2.92;;;;;;;5.33;100.00;101220.13;4968165;28;20030;-74
2023/01/14 03:27:21;;;;;;;33.83;4.97;;;;;;;5.32;100.00;101215.09;4969119;28;20132;-74
2023/01/14 03:29:52;;;;;;;33.65;4.85;;;;;;;5.30;100.00;101216.94;4947617;28;20043;-74
2023/01/14 03:32:23;;;;;;;29.60;3.55;;;;;;;5.25;100.00;101220.69;4979496;28;20034;-74
2023/01/14 03:34:58;;;;;;;25.80;4.60;;;;;;;5.17;100.00;101217.00;4982207;28;20035;-74
2023/01/14 03:37:28;;;;;;;39.78;4.65;;;;;;;5.17;100.00;101215.25;4966810;28;20464;-74
2023/01/14 03:39:54;;;;;;;28.58;3.55;;;;;;;5.26;100.00;101214.59;4967835;28;20562;-73
2023/01/14 03:42:23;;;;;;;36.78;4.57;;;;;;;5.26;100.00;101213.78;4971066;28;20018;-74
2023/01/14 03:45:12;;;;;;;23.00;2.90;;;;;;;5.16;100.00;101212.78;4965195;28;20050;-74
2023/01/14 03:47:39;;;;;;;34.33;3.90;;;;;;;5.22;100.00;101210.63;4951915;28;20042;-74
2023/01/14 03:50:12;;;;;;;28.48;3.88;;;;;;;5.21;100.00;101208.16;4961447;28;20039;-74
2023/01/14 03:53:00;;;;;;;45.38;4.28;;;;;;;5.20;100.00;101206.53;4947639;28;20540;-73
2023/01/14 03:55:57;;;;;;;36.55;4.10;;;;;;;5.16;100.00;101205.91;4981454;28;20081;-74
2023/01/14 03:58:45;;;;;;;31.50;3.22;;;;;;;5.22;100.00;101197.75;4966188;28;20035;-73
2023/01/14 04:01:16;;;;;;;23.33;3.47;;;;;;;5.31;100.00;101200.56;4959925;28;20039;-74
2023/01/14 04:03:43;;;;;;;26.02;3.72;;;;;;;5.24;100.00;101193.31;4950903;28;20014;-74
2023/01/14 04:06:11;;;;;;;26.83;2.92;;;;;;;5.39;100.00;101188.81;4967405;28;20062;-74
2023/01/14 04:08:36;;;;;;;27.60;3.30;;;;;;;5.37;100.00;101180.38;4967574;28;20736;-73
2023/01/14 04:11:02;;;;;;;25.20;3.17;;;;;;;5.25;100.00;101178.69;4968632;28;20082;-74
2023/01/14 04:16:12;;;;;;;37.63;3.80;;;;;;;5.21;100.00;101167.81;4967067;28;20026;-74
2023/01/14 04:18:37;;;;;;;35.25;4.95;;;;;;;5.35;100.00;101171.97;4950773;28;20035;-74
2023/01/14 04:21:03;;;;;;;27.58;3.63;;;;;;;5.33;100.00;101158.41;4966431;28;20035;-73
2023/01/14 04:23:28;;;;;;;34.63;4.15;;;;;;;5.25;100.00;101164.13;4932644;28;20090;-74
2023/01/14 04:25:58;;;;;;;34.45;3.78;;;;;;;5.35;100.00;101156.53;4974703;28;20035;-73
2023/01/14 04:28:25;;;;;;;32.22;4.07;;;;;;;5.35;100.00;101153.97;4969327;28;21526;-74
2023/01/14 04:30:51;;;;;;;39.67;4.00;;;;;;;5.35;100.00;101148.81;4969492;28;20063;-74
2023/01/14 04:33:16;;;;;;;30.48;3.33;;;;;;;5.34;100.00;101142.03;4939411;28;20034;-74
2023/01/14 04:35:50;;;;;;;31.23;3.72;;;;;;;5.26;100.00;101137.44;4967001;28;20134;-74
2023/01/14 04:38:17;;;;;;;25.60;4.13;;;;;;;5.32;100.00;101135.38;4965648;28;20026;-73
2023/01/14 04:40:43;;;;;;;27.38;3.10;;;;;;;5.34;100.00;101118.88;4986071;28;20038;-74
2023/01/14 04:43:08;;;;;;;36.17;4.05;;;;;;;5.21;100.00;101105.28;4970081;28;20673;-74
2023/01/14 04:45:35;;;;;;;22.45;3.42;;;;;;;5.18;100.00;101106.34;4987779;28;20050;-73
2023/01/14 04:48:02;;;;;;;35.72;6.05;;;;;;;5.22;100.00;101107.75;4965253;28;20460;-74
2023/01/14 04:50:30;;;;;;;22.85;3.08;;;;;;;5.23;100.00;101106.00;4970147;28;20037;-73
2023/01/14 04:53:02;;;;;;;33.08;4.45;;;;;;;5.34;100.00;101094.94;4953499;28;20401;-73
2023/01/14 04:55:28;;;;;;;36.88;4.88;;;;;;;5.33;100.00;101098.41;4983270;28;20039;-73
2023/01/14 04:57:53;;;;;;;29.25;2.70;;;;;;;5.26;100.00;101083.44;4953192;28;20030;-74
2023/01/14 05:00:19;;;;;;;26.45;3.78;;;;;;;5.22;100.00;101087.19;4972130;28;20396;-73
2023/01/14 05:02:44;;;;;;;27.52;4.68;;;;;;;5.15;100.00;101092.91;4952742;28;20119;-74
2023/01/14 05:05:10;;;;;;;27.55;5.03;;;;;;;5.18;100.00;101087.50;4985096;28;20035;-73
2023/01/14 05:07:35;;;;;;;33.83;3.63;;;;;;;5.23;100.00;101083.66;4967278;28;20038;-73
2023/01/14 05:10:01;;;;;;;23.05;2.85;;;;;;;5.20;100.00;101081.34;4951121;28;20610;-74
2023/01/14 05:12:26;;;;;;;27.98;3.53;;;;;;;5.12;100.00;101080.25;4949889;28;20046;-73
2023/01/14 05:14:51;;;;;;;35.75;4.03;;;;;;;5.20;100.00;101085.69;4964298;28;20046;-73
2023/01/14 05:17:17;;;;;;;25.20;3.17;;;;;;;5.20;100.00;101070.25;4968331;28;20069;-73
2023/01/14 05:19:42;;;;;;;27.73;3.60;;;;;;;5.13;100.00;101075.00;4983815;28;20031;-73
2023/01/14 05:22:08;;;;;;;33.25;3.55;;;;;;;5.20;100.00;101067.69;4968245;28;20405;-73
2023/01/14 05:24:34;;;;;;;34.60;3.75;;;;;;;5.14;100.00;101063.81;4966882;28;20086;-73
2023/01/14 05:26:59;;;;;;;32.95;3.67;;;;;;;5.08;100.00;101064.25;4983862;28;20054;-74
2023/01/14 05:29:25;;;;;;;22.88;3.80;;;;;;;5.19;100.00;101066.84;4954004;28;20042;-74
2023/01/14 05:31:50;;;;;;;23.23;3.25;;;;;;;5.11;100.00;101068.34;4968065;28;20078;-72
2023/01/14 05:34:18;;;;;;;25.42;3.35;;;;;;;5.18;100.00;101056.66;4950182;28;20045;-74
2023/01/14 05:36:44;;;;;;;24.17;3.20;;;;;;;5.15;100.00;101046.63;4981188;28;20504;-73
2023/01/14 05:39:10;;;;;;;22.38;2.90;;;;;;;5.20;100.00;101036.81;4970781;28;20027;-73
2023/01/14 05:45:37;;;;;;;23.73;2.47;;;;;;;5.18;100.00;101034.38;4965778;28;20064;-74
2023/01/14 05:47:05;;;;;;;41.83;2.83;;;;;;;5.21;100.00;101025.59;4970017;28;20098;-74
2023/01/14 05:49:30;;;;;;;37.00;4.55;;;;;;;5.25;100.00;101020.13;4969749;28;20034;-73
2023/01/14 05:51:56;;;;;;;29.35;3.00;;;;;;;5.22;100.00;101019.53;4970524;28;20038;-73
2023/01/14 05:54:21;;;;;;;27.63;2.97;;;;;;;5.21;100.00;101008.41;4969652;28;20416;-73
2023/01/14 05:56:47;;;;;;;25.17;4.15;;;;;;;5.17;100.00;101004.44;4965407;28;20043;-74
2023/01/14 05:59:12;;;;;;;47.35;4.68;;;;;;;5.37;100.00;100996.94;4980061;28;20031;-73
2023/01/14 06:07:06;;;;;;;25.95;2.72;;;;;;;5.35;100.00;100983.41;4979363;28;20043;-73
2023/01/14 06:09:33;;;;;;;21.13;3.75;;;;;;;5.37;100.00;100974.66;4977189;28;20037;-73
2023/01/14 06:12:05;;;;;;;22.20;3.50;;;;;;;5.42;100.00;100974.28;4965436;28;20038;-73
2023/01/14 06:14:31;;;;;;;30.00;4.13;;;;;;;5.52;99.99;100964.94;4983756;28;20138;-73
2023/01/14 06:16:57;;;;;;;26.92;3.88;;;;;;;5.49;99.62;100959.19;4981415;28;20054;-74
2023/01/14 06:19:24;;;;;;;26.73;4.57;;;;;;;5.51;99.20;100955.56;4967666;28;20046;-74
2023/01/14 06:21:50;;;;;;;26.10;2.83;;;;;;;5.46;98.74;100944.81;4951737;28;20042;-74
2023/01/14 06:24:15;;;;;;;33.88;3.35;;;;;;;5.56;98.32;100947.50;4980200;28;20038;-73
2023/01/14 06:26:41;;;;;;;18.58;2.85;;;;;;;5.66;97.14;100941.50;4963727;28;20093;-74
2023/01/14 06:29:11;;;;;;;19.30;2.47;;;;;;;5.59;97.71;100942.91;4982115;28;20493;-73
2023/01/14 06:31:38;;;;;;;25.35;3.33;;;;;;;5.56;97.78;100932.06;4949749;28;20046;-73
2023/01/14 06:34:04;;;;;;;27.40;3.10;;;;;;;5.60;96.84;100929.13;4948457;28;20526;-72
2023/01/14 06:36:31;;;;;;;21.95;2.63;;;;;;;5.66;96.20;100926.06;4965452;28;20038;-73
2023/01/14 06:38:57;;;;;;;19.63;2.72;;;;;;;5.69;96.25;100919.03;4981054;28;20401;-73
2023/01/14 06:41:23;;;;;;;22.95;2.40;;;;;;;5.73;96.04;100910.16;4950200;28;21588;-74
2023/01/14 06:43:49;;;;;;;25.80;2.97;;;;;;;5.81;96.20;100900.06;4966350;28;20051;-74
2023/01/14 06:46:16;;;;;;;19.77;3.03;;;;;;;5.73;96.87;100902.44;4980642;28;20034;-73
2023/01/14 06:48:43;;;;;;;16.33;3.00;;;;;;;5.75;97.60;100890.28;4963068;28;20030;-74
2023/01/14 06:51:11;;;;;;;22.88;3.22;;;;;;;5.73;98.62;100890.38;4982880;28;20133;-74
2023/01/14 06:53:37;;;;;;;28.13;2.67;;;;;;;5.66;98.63;100887.47;4968568;28;20042;-74
2023/01/14 06:56:05;;;;;;;21.98;3.67;;;;;;;5.60;100.00;100876.88;4966871;28;20441;-74
2023/01/14 06:58:31;;;;;;;18.13;2.97;;;;;;;5.63;100.00;100874.03;4947953;28;20034;-74
2023/01/14 07:00:58;;;;;;;21.20;3.28;;;;;;;5.62;100.00;100868.06;4965723;28;20039;-74
2023/01/14 07:03:24;;;;;;;29.13;3.38;;;;;;;5.55;100.00;100859.22;4964795;28;20049;-74
2023/01/14 07:05:50;;;;;;;29.98;2.88;;;;;;;5.59;100.00;100852.88;4971076;28;20054;-74
2023/01/14 07:08:16;;;;;;;19.80;3.60;;;;;;;5.45;100.00;100846.25;4948113;28;20038;-74
2023/01/14 07:10:42;;;;;;;19.85;2.95;;;;;;;5.52;100.00;100840.63;4974052;28;20090;-74
2023/01/14 07:13:07;;;;;;;14.90;2.60;;;;;;;5.58;100.00;100835.00;4966869;28;20027;-74
2023/01/14 07:15:33;;;;;;;19.77;3.03;;;;;;;5.53;100.00;100840.50;4977462;28;20043;-74
2023/01/14 07:17:58;;;;;;;29.50;3.30;;;;;;;5.47;100.00;100828.13;4981697;28;20098;-74
2023/01/14 07:20:24;;;;;;;15.55;4.32;;;;;;;5.43;100.00;100817.28;4949506;28;20042;-74
2023/01/14 07:22:50;;;;;;;30.83;3.00;;;;;;;5.38;100.00;100823.72;4983364;28;20023;-73
2023/01/14 07:25:16;;;;;;;22.45;2.88;;;;;;;5.38;100.00;100809.09;4964727;28;20034;-74
2023/01/14 07:27:42;;;;;;;39.28;5.40;;;;;;;5.37;100.00;100802.34;4981968;28;20508;-74
2023/01/14 07:30:08;;;;;;;33.35;3.97;;;;;;;5.33;100.00;100800.13;4966385;28;20042;-74
2023/01/14 07:32:34;;;;;;;28.48;4.15;;;;;;;5.30;100.00;100792.66;4965585;28;20038;-74
2023/01/14 07:35:00;;;;;;;22.90;4.78;;;;;;;5.34;100.00;100788.91;4963404;28;20045;-74
2023/01/14 07:37:25;;;;;;;28.00;4.65;;;;;;;5.34;100.00;100778.63;4981681;28;20146;-74
2023/01/14 07:39:51;;;;;;;20.67;2.65;;;;;;;5.35;100.00;100767.38;4966205;28;20157;-74
2023/01/14 07:42:18;;;;;;;20.67;3.40;;;;;;;5.25;100.00;100778.44;4968737;28;20023;-73
2023/01/14 07:44:46;;;;;;;15.52;2.58;;;;;;;5.28;100.00;100758.56;4965976;28;20039;-74
2023/01/14 07:47:11;;;;;;;28.73;3.08;;;;;;;5.26;100.00;100753.53;5034656;23;20091;-76
2023/01/14 07:49:39;;;;;;;18.45;3.20;;;;;;;5.26;100.00;100767.19;5037728;28;20399;-76
2023/01/14 07:52:05;;;;;;;28.48;3.15;;;;;;;5.30;100.00;100756.66;5031793;28;20041;-76
2023/01/14 07:54:31;;;;;;;19.75;2.47;;;;;;;5.32;100.00;100753.03;5042681;28;20098;-76
2023/01/14 07:56:57;;;;;;;23.58;4.13;;;;;;;5.28;100.00;100743.94;5028686;28;20033;-76
2023/01/14 07:59:22;;;;;;;28.02;3.95;;;;;;;5.29;100.00;100734.44;5023641;28;20037;-76
2023/01/14 08:01:48;;;;;;;16.92;2.25;;;;;;;5.33;100.00;100738.41;5033090;28;20106;-75
2023/01/14 08:04:13;;;;;;;17.35;2.65;;;;;;;5.28;100.00;100730.28;5013880;28;20021;-75
2023/01/14 08:06:39;;;;;;;21.75;3.78;;;;;;;5.34;100.00;100725.44;5027078;28;20084;-76
2023/01/14 08:09:04;;;;;;;30.70;4.10;;;;;;;5.30;100.00;100720.69;5014475;28;20479;-76
2023/01/14 08:11:31;;;;;;;18.63;2.55;;;;;;;5.32;100.00;100706.75;5029969;28;22416;-75
2023/01/14 08:13:56;;;;;;;15.13;2.88;;;;;;;5.38;100.00;100701.09;5030657;28;20025;-75
2023/01/14 08:16:22;;;;;;;22.30;2.78;;;;;;;5.33;100.00;100697.25;5030753;28;20538;-76
2023/01/14 08:18:48;;;;;;;16.52;2.75;;;;;;;5.36;100.00;100684.97;5032312;28;20029;-75
2023/01/14 08:21:14;;;;;;;25.80;3.72;;;;;;;5.37;100.00;100689.19;5005824;28;20728;-74
2023/01/14 08:23:40;;;;;;;22.02;3.00;;;;;;;5.45;100.00;100680.84;5026667;28;20064;-75
2023/01/14 08:26:11;;;;;;;21.70;2.97;;;;;;;5.49;100.00;100681.41;5012464;28;20491;-76
2023/01/14 08:28:38;;;;;;;27.65;3.22;;;;;;;5.47;100.00;100682.34;5033770;28;20033;-75
2023/01/14 08:31:11;;;;;;;15.80;2.58;;;;;;;5.44;100.00;100680.03;5012216;28;20112;-75
2023/01/14 08:33:37;;;;;;;18.80;2.67;;;;;;;5.53;100.00;100672.50;5037396;28;20032;-76
2023/01/14 08:36:21;;;;;;;20.85;3.40;;;;;;;5.54;100.00;100672.38;5014733;28;20407;-75
2023/01/14 08:38:50;;;;;;;23.08;2.42;;;;;;;5.52;100.00;100656.25;5028779;28;20036;-75
2023/01/14 08:41:17;;;;;;;18.25;2.40;;;;;;;5.65;100.00;100638.03;5012070;28;20483;-76
2023/01/14 08:43:47;;;;;;;18.70;2.55;;;;;;;5.62;100.00;100636.53;5030168;28;20037;-75
2023/01/14 08:46:12;;;;;;;15.40;2.75;;;;;;;5.68;100.00;100631.84;5024506;28;20033;-76
2023/01/14 08:48:38;;;;;;;10.38;2.33;;;;;;;5.72;100.00;100616.00;5028634;28;20076;-75
2023/01/14 08:51:09;;;;;;;14.18;2.47;;;;;;;5.80;100.00;100617.94;5011456;28;20045;-75
2023/01/14 08:53:36;;;;;;;19.40;3.10;;;;;;;5.86;100.00;100602.00;5029395;28;20033;-75
2023/01/14 08:56:03;;;;;;;14.00;1.75;;;;;;;5.92;100.00;100596.31;5028372;28;20294;-75
2023/01/14 08:58:29;;;;;;;16.98;2.00;;;;;;;5.95;100.00;100579.78;5027482;28;20037;-75
2023/01/14 09:00:56;;;;;;;12.07;2.05;;;;;;;5.95;100.00;100578.06;4996904;28;20076;-75
2023/01/14 09:03:22;;;;;;;8.80;1.27;;;;;;;6.02;100.00;100573.19;5012548;28;20037;-74
2023/01/14 09:05:47;;;;;;;5.07;0.93;;;;;;;5.97;100.00;100565.06;5027585;28;20499;-75
2023/01/14 09:19:13;;;;;;;14.13;3.88;;;;;;;6.64;100.00;100519.72;5031267;28;20083;-75
2023/01/14 09:21:39;;;;;;;5.70;1.10;;;;;;;6.63;100.00;100510.38;5029157;28;20137;-74
2023/01/14 09:24:04;;;;;;;8.90;1.10;;;;;;;6.66;100.00;100507.50;5012725;28;20034;-75
2023/01/14 09:26:30;;;;;;;5.97;1.10;;;;;;;6.67;100.00;100498.84;5029691;28;21226;-75
2023/01/14 09:28:55;;;;;;;4.40;0.95;;;;;;;6.63;100.00;100497.50;5038338;28;20025;-75
2023/01/14 09:31:20;;;;;;;4.90;0.93;;;;;;;6.67;100.00;100485.97;5039386;28;20645;-75
2023/01/14 09:33:46;;;;;;;3.38;1.15;;;;;;;6.63;100.00;100487.19;5026620;28;20075;-75
2023/01/14 09:36:12;;;;;;;9.27;1.67;;;;;;;6.61;100.00;100486.47;5011723;28;20444;-75
2023/01/14 09:38:37;;;;;;;5.28;0.93;;;;;;;6.71;100.00;100476.19;5017080;28;20025;-75
2023/01/14 09:41:03;;;;;;;8.85;1.25;;;;;;;6.77;100.00;100465.31;5026812;28;20403;-75
2023/01/14 09:43:30;;;;;;;6.20;0.90;;;;;;;6.86;100.00;100458.53;5032618;28;20561;-74
2023/01/14 09:45:59;;;;;;;2.58;0.93;;;;;;;6.84;100.00;100453.50;5025681;28;20033;-74
2023/01/14 09:48:27;;;;;;;8.35;1.17;;;;;;;6.97;100.00;100448.03;5028482;28;20041;-75
2023/01/14 09:51:13;;;;;;;9.75;0.98;;;;;;;6.90;100.00;100436.66;5030302;28;20042;-74
2023/01/14 09:54:02;;;;;;;4.40;1.08;;;;;;;6.96;100.00;100430.94;5016056;28;20640;-74
2023/01/14 09:56:39;;;;;;;4.68;0.82;;;;;;;7.05;100.00;100434.44;5015733;28;20136;-74
2023/01/14 09:59:17;;;;;;;6.55;1.08;;;;;;;6.98;100.00;100435.00;5029028;28;20471;-75
2023/01/14 10:01:55;;;;;;;5.40;1.27;;;;;;;7.00;100.00;100424.53;5028046;28;20188;-75
2023/01/14 10:04:48;;;;;;;6.85;1.10;;;;;;;6.95;100.00;100414.66;5030491;28;20048;-75
2023/01/14 10:07:17;;;;;;;9.82;1.88;;;;;;;6.83;100.00;100398.53;5027250;28;20052;-75
2023/01/14 10:09:53;;;;;;;10.80;1.65;;;;;;;6.94;100.00;100399.34;5030330;28;20490;-75
2023/01/14 10:12:25;;;;;;;7.03;1.15;;;;;;;6.88;100.00;100398.13;5029267;28;20029;-75
2023/01/14 10:15:18;;;;;;;9.10;1.23;;;;;;;6.82;100.00;100384.06;5007057;28;20049;-74
2023/01/14 10:18:00;;;;;;;6.40;1.25;;;;;;;6.79;100.00;100388.66;5011508;28;20491;-74
2023/01/14 10:20:42;;;;;;;7.93;1.02;;;;;;;6.86;100.00;100387.16;5029566;28;20045;-75
2023/01/14 10:23:14;;;;;;;10.60;1.48;;;;;;;6.83;100.00;100375.34;5025379;28;20192;-75
2023/01/14 10:25:48;;;;;;;7.88;1.63;;;;;;;6.89;100.00;100368.00;5014570;28;21423;-76
2023/01/14 10:28:16;;;;;;;6.32;0.95;;;;;;;6.90;100.00;100360.13;5031471;28;20033;-75
2023/01/14 10:30:43;;;;;;;11.80;2.58;;;;;;;6.86;100.00;100342.53;5008143;28;20049;-76
2023/01/14 10:33:14;;;;;;;14.27;1.63;;;;;;;6.81;100.00;100346.34;5031596;28;20384;-76
2023/01/14 10:35:47;;;;;;;8.32;1.48;;;;;;;6.93;100.00;100333.25;5010650;28;20048;-75
2023/01/14 10:38:18;;;;;;;9.98;1.20;;;;;;;6.96;100.00;100345.88;5046173;28;20159;-76
2023/01/14 10:40:46;;;;;;;5.82;1.25;;;;;;;6.97;100.00;100330.25;5023115;28;20038;-76
2023/01/14 10:43:25;;;;;;;5.82;1.08;;;;;;;7.05;100.00;100326.97;5030062;28;20052;-76
2023/01/14 10:45:50;;;;;;;8.75;1.10;;;;;;;7.11;100.00;100346.19;5023032;28;20435;-75
2023/01/14 10:48:20;;;;;;;16.92;1.88;;;;;;;7.18;100.00;100318.88;5030186;28;20033;-75
2023/01/14 10:50:45;;;;;;;12.50;1.25;;;;;;;7.14;100.00;100314.94;5028803;28;20095;-76
2023/01/14 10:53:19;;;;;;;10.57;1.10;;;;;;;7.28;100.00;100306.72;5035287;28;20034;-76
2023/01/14 10:56:14;;;;;;;6.28;1.00;;;;;;;7.31;100.00;100295.28;5028250;28;20044;-76
2023/01/14 10:58:45;;;;;;;7.57;1.25;;;;;;;7.30;100.00;100285.94;5002718;28;20041;-76
2023/01/14 11:01:11;;;;;;;10.65;1.45;;;;;;;7.37;100.00;100263.78;5027548;28;20041;-76
2023/01/14 11:03:40;;;;;;;9.10;1.35;;;;;;;7.34;100.00;100258.91;5027260;28;20097;-76
2023/01/14 11:06:12;;;;;;;5.15;1.00;;;;;;;7.33;100.00;100228.94;5035357;28;20041;-75
2023/01/14 11:08:47;;;;;;;7.75;1.67;;;;;;;7.41;100.00;100226.41;5032742;28;20091;-75
2023/01/14 11:11:22;;;;;;;8.88;1.75;;;;;;;7.39;100.00;100216.22;5031141;28;20040;-76
2023/01/14 11:13:50;;;;;;;8.45;1.52;;;;;;;7.48;100.00;100200.81;5027427;28;20119;-76
2023/01/14 11:16:25;;;;;;;8.93;1.50;;;;;;;7.60;100.00;100202.19;5025008;28;20045;-75
2023/01/14 11:19:14;;;;;;;5.57;1.27;;;;;;;7.52;100.00;100191.81;5024376;28;20435;-76
2023/01/14 11:21:43;;;;;;;5.10;1.50;;;;;;;7.52;100.00;100187.47;5015416;28;20060;-76
2023/01/14 11:24:12;;;;;;;6.32;1.10;;;;;;;7.58;100.00;100173.16;5030426;28;20033;-76
2023/01/14 11:26:39;;;;;;;4.82;1.00;;;;;;;7.65;100.00;100175.91;5006243;28;20427;-75
2023/01/14 11:29:22;;;;;;;3.05;0.60;;;;;;;7.66;100.00;100156.91;5013510;28;20038;-76
2023/01/14 11:31:50;;;;;;;6.10;1.00;;;;;;;7.70;100.00;100148.69;5024086;28;20036;-76
2023/01/14 11:34:47;;;;;;;2.92;1.00;;;;;;;7.66;100.00;100131.91;5036180;28;20017;-75
2023/01/14 11:37:17;;;;;;;7.90;1.10;;;;;;;7.69;100.00;100138.56;5031085;28;20468;-75
2023/01/14 11:40:20;;;;;;;7.22;0.73;;;;;;;7.73;100.00;100111.47;5032713;28;20396;-75
2023/01/14 11:42:46;;;;;;;5.72;1.25;;;;;;;7.70;100.00;100109.19;5030219;28;20142;-75
2023/01/14 11:45:12;;;;;;;6.72;1.42;;;;;;;7.72;100.00;100108.09;5013978;28;20038;-75
2023/01/14 11:47:46;;;;;;;4.68;1.08;;;;;;;7.68;100.00;100108.53;5034495;28;20044;-76
2023/01/14 11:50:19;;;;;;;3.25;0.98;;;;;;;7.78;100.00;100110.03;5037865;28;20080;-75
2023/01/14 11:53:15;;;;;;;8.07;1.17;;;;;;;7.87;100.00;100099.75;5050343;28;21535;-75
2023/01/14 11:55:41;;;;;;;4.10;1.00;;;;;;;7.82;100.00;100101.97;5030519;28;20049;-76
2023/01/14 11:58:22;;;;;;;1.95;0.60;;;;;;;7.89;100.00;100082.31;5039137;28;20068;-76